Time;durP1;ratioP1;P1;durP2;ratioP2;P2;SDS_P1;SDS_P2;PMS_P1;PMS_P2;Temp;Humidity;BMP_temperature;BMP_pressure;BME280_temperature;BME280_humidity;BME280_pressure;Samples;Min_cycle;Max_cycle;Signal;HPM_P1;HPM_P2
2022/10/16 00:00:43;;;;;;;11.10;2.30;;;;;;;;;;6245167;23;20589;-85
2022/10/16 00:03:10;;;;;;;3.33;1.00;;;;;;;;;;6243769;23;20677;-85
2022/10/16 00:05:41;;;;;;;2.83;1.27;;;15.90;99.90;;;;;;6243728;23;20395;-85
2022/10/16 00:08:07;;;;;;;2.60;1.07;;;15.90;99.90;;;;;;6245533;22;20402;-85
2022/10/16 00:10:33;;;;;;;2.97;1.60;;;16.20;99.90;;;;;;6242839;23;20433;-85
2022/10/16 00:12:59;;;;;;;1.83;1.17;;;;;;;;;;6242693;23;20748;-85
2022/10/16 00:15:25;;;;;;;4.27;1.30;;;16.10;99.90;;;;;;6246674;23;20160;-85
2022/10/16 00:17:50;;;;;;;3.30;0.97;;;15.90;99.90;;;;;;6244614;23;20449;-85
2022/10/16 00:20:16;;;;;;;1.43;1.10;;;16.20;99.90;;;;;;6245185;23;20565;-85
2022/10/16 00:22:41;;;;;;;3.13;1.17;;;15.90;99.90;;;;;;6244932;23;20188;-85
2022/10/16 00:25:07;;;;;;;1.20;1.10;;;;;;;;;;6237463;23;20372;-84
2022/10/16 00:27:34;;;;;;;3.37;1.10;;;15.20;99.90;;;;;;6244966;23;20516;-84
2022/10/16 00:30:00;;;;;;;1.77;0.93;;;;;;;;;;6242886;23;20404;-85
2022/10/16 00:32:25;;;;;;;4.10;0.90;;;;;;;;;;6245812;23;20376;-85
2022/10/16 00:34:53;;;;;;;3.70;1.47;;;16.20;99.90;;;;;;6248385;23;20391;-85
2022/10/16 00:37:18;;;;;;;4.40;0.80;;;;;;;;;;6244790;22;20956;-84
2022/10/16 00:39:44;;;;;;;4.37;1.20;;;;;;;;;;6245699;23;20457;-85
2022/10/16 00:42:16;;;;;;;2.50;1.20;;;16.10;99.90;;;;;;6243837;23;20761;-84
2022/10/16 00:44:52;;;;;;;6.63;1.00;;;16.10;99.90;;;;;;6244707;23;20395;-85
2022/10/16 00:47:26;;;;;;;3.00;1.00;;;16.10;99.90;;;;;;6245197;22;20372;-85
2022/10/16 00:49:59;;;;;;;3.60;1.17;;;16.30;99.90;;;;;;6245764;22;20616;-85
2022/10/16 00:52:25;;;;;;;1.30;0.70;;;16.10;99.90;;;;;;6243100;22;20394;-85
2022/10/16 00:54:53;;;;;;;4.57;1.17;;;16.20;99.90;;;;;;6242602;23;20407;-85
2022/10/16 00:57:19;;;;;;;2.03;1.00;;;;;;;;;;6244501;23;20180;-85
2022/10/16 00:59:45;;;;;;;1.90;1.00;;;16.10;99.90;;;;;;6243985;23;20376;-86
2022/10/16 01:02:14;;;;;;;3.80;1.13;;;16.20;99.90;;;;;;6245990;23;20390;-85
2022/10/16 01:04:44;;;;;;;1.70;0.80;;;16.10;99.90;;;;;;6231371;22;21176;-89
2022/10/16 01:07:24;;;;;;;5.10;1.20;;;16.20;99.90;;;;;;6245802;22;20391;-89
2022/10/16 01:10:26;;;;;;;1.53;0.70;;;16.20;99.90;;;;;;6243515;22;20356;-89
2022/10/16 01:13:04;;;;;;;1.93;1.10;;;16.40;99.90;;;;;;6244192;23;20386;-89
2022/10/16 01:15:37;;;;;;;3.00;0.90;;;16.20;99.90;;;;;;6242985;23;20367;-90
2022/10/16 01:18:03;;;;;;;3.27;1.87;;;;;;;;;;6244157;22;20721;-89
2022/10/16 01:20:31;;;;;;;3.57;1.10;;;16.20;99.90;;;;;;6243041;23;20865;-89
2022/10/16 01:23:26;;;;;;;3.13;1.20;;;16.20;99.90;;;;;;6246028;22;20371;-89
2022/10/16 01:26:13;;;;;;;5.67;1.57;;;16.20;99.90;;;;;;6242700;23;21023;-89
2022/10/16 01:28:47;;;;;;;6.23;0.97;;;16.10;99.90;;;;;;6243310;23;20430;-90
2022/10/16 01:31:18;;;;;;;1.17;0.87;;;16.10;99.90;;;;;;6244184;23;20420;-87
2022/10/16 01:33:47;;;;;;;1.60;0.87;;;16.10;99.90;;;;;;6243082;23;20387;-88
2022/10/16 01:36:23;;;;;;;6.40;0.90;;;16.10;99.90;;;;;;6238608;23;20404;-89
2022/10/16 01:38:52;;;;;;;1.30;1.10;;;16.10;99.90;;;;;;6245383;22;20391;-87
2022/10/16 01:41:38;;;;;;;5.30;1.50;;;16.20;99.90;;;;;;6243269;23;20384;-88
2022/10/16 01:44:21;;;;;;;2.10;1.23;;;16.20;99.90;;;;;;6241107;23;20371;-87
2022/10/16 01:46:50;;;;;;;2.20;1.40;;;16.10;99.90;;;;;;6245905;23;20407;-87
2022/10/16 01:49:17;;;;;;;2.17;1.03;;;16.10;99.90;;;;;;6246026;23;20390;-88
2022/10/16 01:51:45;;;;;;;3.17;1.60;;;16.10;99.90;;;;;;6247854;22;20379;-87
2022/10/16 01:54:13;;;;;;;5.10;1.20;;;16.20;99.90;;;;;;6246448;23;20383;-87
2022/10/16 01:56:39;;;;;;;3.13;1.20;;;;;;;;;;6252108;22;20395;-90
2022/10/16 01:59:16;;;;;;;2.77;1.03;;;16.10;99.90;;;;;;6246619;23;20449;-89
2022/10/16 02:01:47;;;;;;;4.23;1.33;;;16.10;99.90;;;;;;6247983;22;20356;-90
2022/10/16 02:04:21;;;;;;;3.90;1.23;;;16.00;99.90;;;;;;6246426;22;20391;-90
2022/10/16 02:06:47;;;;;;;5.60;1.10;;;;;;;;;;6258207;22;20461;-89
2022/10/16 02:09:16;;;;;;;2.00;0.90;;;;;;;;;;6258970;23;20390;-90
2022/10/16 02:11:42;;;;;;;8.50;1.50;;;;;;;;;;6248730;23;20460;-89
2022/10/16 02:14:08;;;;;;;3.03;1.77;;;;;;;;;;6247680;23;20384;-88
2022/10/16 02:16:40;;;;;;;5.10;1.40;;;15.90;99.90;;;;;;6250266;23;20566;-88
2022/10/16 02:19:07;;;;;;;2.43;0.90;;;15.90;99.90;;;;;;6248874;22;20620;-88
2022/10/16 02:21:50;;;;;;;2.37;1.03;;;16.10;99.90;;;;;;6248148;23;20379;-88
2022/10/16 02:24:47;;;;;;;7.40;1.10;;;16.00;99.90;;;;;;6246483;23;20370;-88
2022/10/16 02:27:44;;;;;;;3.07;1.20;;;15.90;99.90;;;;;;6245110;23;20403;-88
2022/10/16 02:30:39;;;;;;;2.20;1.20;;;16.00;99.90;;;;;;6252506;22;20348;-89
2022/10/16 02:33:10;;;;;;;1.20;0.80;;;15.90;99.90;;;;;;6247615;23;20400;-89
2022/10/16 02:35:37;;;;;;;4.30;1.43;;;16.00;99.90;;;;;;6250708;22;20443;-87
2022/10/16 02:38:03;;;;;;;3.60;1.30;;;;;;;;;;6249674;22;20442;-88
2022/10/16 02:40:29;;;;;;;8.50;1.37;;;;;;;;;;6246757;23;20380;-89
2022/10/16 02:42:56;;;;;;;10.90;1.40;;;;;;;;;;6247180;23;20364;-87
2022/10/16 02:45:22;;;;;;;17.50;1.90;;;16.00;99.90;;;;;;6249238;23;20862;-90
2022/10/16 02:47:48;;;;;;;3.83;1.13;;;16.00;99.90;;;;;;6245564;23;20498;-88
2022/10/16 02:50:14;;;;;;;4.60;1.37;;;;;;;;;;6245596;23;20367;-88
2022/10/16 02:52:40;;;;;;;4.40;1.27;;;;;;;;;;6246109;23;20380;-88
2022/10/16 02:55:07;;;;;;;4.53;1.10;;;;;;;;;;6248180;23;20429;-88
2022/10/16 02:57:32;;;;;;;5.80;1.67;;;;;;;;;;6246050;23;20533;-89
2022/10/16 02:59:58;;;;;;;9.43;1.10;;;;;;;;;;6248617;23;20359;-89
2022/10/16 03:02:25;;;;;;;3.10;1.13;;;;;;;;;;6247504;23;20868;-88
2022/10/16 03:04:50;;;;;;;1.53;1.07;;;15.90;99.90;;;;;;6247805;23;20396;-89
2022/10/16 03:07:16;;;;;;;9.17;1.40;;;;;;;;;;6247424;23;20402;-88
2022/10/16 03:09:42;;;;;;;2.80;1.20;;;15.70;99.90;;;;;;6250062;23;20183;-88
2022/10/16 03:12:08;;;;;;;5.47;2.07;;;;;;;;;;6249008;22;20367;-88
2022/10/16 03:14:34;;;;;;;8.37;1.57;;;;;;;;;;6248692;23;20259;-89
2022/10/16 03:17:00;;;;;;;2.53;1.37;;;;;;;;;;6251096;23;20482;-89
2022/10/16 03:19:26;;;;;;;3.10;1.70;;;;;;;;;;6248357;23;20853;-88
2022/10/16 03:21:52;;;;;;;6.07;1.47;;;;;;;;;;6250144;23;20372;-88
2022/10/16 03:24:18;;;;;;;2.80;1.20;;;;;;;;;;6245565;23;20382;-90
2022/10/16 03:26:44;;;;;;;3.63;1.40;;;;;;;;;;6248121;23;20457;-89
2022/10/16 03:29:10;;;;;;;13.97;1.53;;;;;;;;;;6251787;23;20431;-88
2022/10/16 03:31:36;;;;;;;12.10;2.70;;;;;;;;;;6247132;23;20376;-89
2022/10/16 03:34:02;;;;;;;17.37;1.83;;;;;;;;;;6256484;23;20457;-88
2022/10/16 03:36:28;;;;;;;1.93;0.97;;;;;;;;;;6266002;22;20420;-89
2022/10/16 03:38:55;;;;;;;4.30;1.33;;;;;;;;;;6255003;23;20446;-89
2022/10/16 03:41:21;;;;;;;3.73;1.17;;;;;;;;;;6252724;23;20363;-89
2022/10/16 03:43:46;;;;;;;1.57;1.10;;;;;;;;;;6251747;23;20380;-89
2022/10/16 03:46:12;;;;;;;1.53;1.20;;;;;;;;;;6249499;23;20387;-89
2022/10/16 03:48:39;;;;;;;1.97;1.20;;;;;;;;;;6248712;23;20380;-88
2022/10/16 03:51:05;;;;;;;1.63;1.30;;;15.60;99.90;;;;;;6236929;22;20372;-88
2022/10/16 03:53:31;;;;;;;5.40;1.20;;;;;;;;;;6247990;23;20372;-88
2022/10/16 03:55:58;;;;;;;2.40;1.17;;;;;;;;;;6240053;22;20441;-79
2022/10/16 03:58:24;;;;;;;17.13;1.87;;;;;;;;;;6235649;22;20481;-84
2022/10/16 04:00:49;;;;;;;6.63;1.70;;;15.40;99.90;;;;;;6238977;23;20408;-81
2022/10/16 04:03:15;;;;;;;2.90;1.67;;;;;;;;;;6240274;23;20363;-82
2022/10/16 04:05:41;;;;;;;2.27;1.00;;;;;;;;;;6239282;23;20171;-82
2022/10/16 04:08:07;;;;;;;3.97;1.57;;;15.40;99.90;;;;;;6238944;23;20384;-81
2022/10/16 04:10:33;;;;;;;1.67;1.10;;;;;;;;;;6239550;23;20443;-82
2022/10/16 04:12:59;;;;;;;4.20;1.10;;;15.30;99.90;;;;;;6235118;23;20163;-82
2022/10/16 04:15:25;;;;;;;3.63;1.33;;;15.40;99.90;;;;;;6242541;23;20395;-82
2022/10/16 04:17:51;;;;;;;7.10;1.80;;;15.40;99.90;;;;;;6241091;23;20203;-83
2022/10/16 04:20:17;;;;;;;4.10;1.20;;;15.40;99.90;;;;;;6240514;23;20376;-83
2022/10/16 04:22:42;;;;;;;5.70;1.30;;;15.40;99.90;;;;;;6240264;23;20899;-82
2022/10/16 04:25:09;;;;;;;1.83;1.17;;;;;;;;;;6243554;23;20179;-87
2022/10/16 04:27:34;;;;;;;2.30;1.03;;;15.50;99.90;;;;;;6243054;23;20184;-85
2022/10/16 04:30:00;;;;;;;1.63;1.30;;;15.60;99.90;;;;;;6244123;23;20360;-85
2022/10/16 04:32:26;;;;;;;1.90;1.27;;;15.60;99.90;;;;;;6241841;23;20148;-82
2022/10/16 04:34:53;;;;;;;1.63;1.20;;;15.60;99.90;;;;;;6241685;23;20873;-82
2022/10/16 04:37:19;;;;;;;2.97;1.50;;;;;;;;;;6237089;23;20411;-82
2022/10/16 04:39:45;;;;;;;2.97;1.77;;;;;;;;;;6243010;23;20363;-86
2022/10/16 04:42:11;;;;;;;9.87;1.60;;;;;;;;;;6242064;23;20371;-86
2022/10/16 04:44:37;;;;;;;4.33;1.70;;;;;;;;;;6240763;23;20900;-82
2022/10/16 04:47:04;;;;;;;2.90;1.50;;;;;;;;;;6240138;23;20379;-82
2022/10/16 04:49:30;;;;;;;4.27;1.37;;;;;;;;;;6240129;22;20356;-85
2022/10/16 04:51:56;;;;;;;5.37;1.53;;;;;;;;;;6239267;23;20397;-81
2022/10/16 04:54:21;;;;;;;2.80;1.70;;;15.60;99.90;;;;;;6235069;23;20388;-84
2022/10/16 04:56:47;;;;;;;2.37;1.20;;;15.60;99.90;;;;;;6241055;23;21178;-83
2022/10/16 04:59:18;;;;;;;6.90;1.70;;;15.40;99.90;;;;;;6238192;22;20730;-81
2022/10/16 05:01:43;;;;;;;4.80;1.23;;;15.50;99.90;;;;;;6239319;22;20458;-81
2022/10/16 05:04:10;;;;;;;2.57;1.53;;;;;;;;;;6237876;23;20447;-83
2022/10/16 05:06:36;;;;;;;8.23;1.80;;;15.00;99.90;;;;;;6237339;23;20148;-81
2022/10/16 05:09:01;;;;;;;4.73;1.43;;;15.50;99.90;;;;;;6238906;23;20383;-82
2022/10/16 05:11:27;;;;;;;2.90;1.70;;;;;;;;;;6241654;23;20202;-83
2022/10/16 05:13:53;;;;;;;4.03;2.23;;;15.40;99.90;;;;;;6240137;23;20916;-86
2022/10/16 05:16:18;;;;;;;3.60;1.80;;;15.50;99.90;;;;;;6239680;23;20394;-82
2022/10/16 05:18:44;;;;;;;2.70;2.37;;;;;;;;;;6241485;23;20172;-85
2022/10/16 05:21:10;;;;;;;3.90;2.00;;;15.50;99.90;;;;;;6242801;23;20779;-85
2022/10/16 05:23:36;;;;;;;4.63;1.80;;;;;;;;;;6240134;23;20857;-80
2022/10/16 05:26:02;;;;;;;2.70;1.70;;;;;;;;;;6243112;23;20160;-82
2022/10/16 05:28:29;;;;;;;2.57;1.57;;;15.60;99.90;;;;;;6240980;23;20858;-82
2022/10/16 05:30:55;;;;;;;2.53;1.27;;;;;;;;;;6243558;22;20371;-83
2022/10/16 05:33:22;;;;;;;1.73;1.57;;;15.70;99.90;;;;;;6241691;23;20386;-85
2022/10/16 05:35:49;;;;;;;3.70;2.20;;;;;;;;;;6243608;23;20407;-85
2022/10/16 05:38:15;;;;;;;5.50;1.67;;;;;;;;;;6244442;22;20502;-85
2022/10/16 05:40:41;;;;;;;5.50;2.03;;;;;;;;;;6242515;23;20927;-84
2022/10/16 05:43:07;;;;;;;2.60;1.40;;;;;;;;;;6244951;23;20365;-85
2022/10/16 05:45:33;;;;;;;15.93;1.83;;;;;;;;;;6243140;23;20873;-84
2022/10/16 05:48:00;;;;;;;3.60;1.60;;;15.40;99.90;;;;;;6244763;23;20874;-86
2022/10/16 05:50:26;;;;;;;7.33;2.00;;;;;;;;;;6241287;22;20371;-86
2022/10/16 05:52:52;;;;;;;6.47;1.70;;;;;;;;;;6241981;23;20375;-87
2022/10/16 05:55:18;;;;;;;5.00;1.97;;;;;;;;;;6243063;23;20398;-81
2022/10/16 05:57:43;;;;;;;2.10;1.90;;;15.30;99.90;;;;;;6242825;23;20449;-79
2022/10/16 06:00:10;;;;;;;2.33;1.60;;;15.30;99.90;;;;;;6238109;23;20411;-81
2022/10/16 06:02:35;;;;;;;3.27;1.60;;;15.20;99.90;;;;;;6236524;23;20857;-79
2022/10/16 06:05:01;;;;;;;2.80;2.43;;;15.10;99.90;;;;;;6240425;23;20485;-81
2022/10/16 06:07:26;;;;;;;3.50;1.90;;;15.10;99.90;;;;;;6240331;23;20153;-80
2022/10/16 06:09:52;;;;;;;5.07;1.77;;;15.10;99.90;;;;;;6239825;23;20148;-83
2022/10/16 06:12:19;;;;;;;3.30;1.90;;;;;;;;;;6243030;23;20153;-80
2022/10/16 06:14:46;;;;;;;3.73;2.37;;;;;;;;;;6241549;23;20450;-84
2022/10/16 06:17:13;;;;;;;3.47;2.47;;;15.40;99.90;;;;;;6242522;22;20853;-83
2022/10/16 06:19:39;;;;;;;2.20;1.83;;;;;;;;;;6241018;23;20858;-84
2022/10/16 06:22:05;;;;;;;3.63;1.87;;;;;;;;;;6241542;23;20392;-83
2022/10/16 06:24:31;;;;;;;5.37;1.80;;;;;;;;;;6240686;23;20426;-82
2022/10/16 06:26:56;;;;;;;4.43;2.00;;;15.60;99.90;;;;;;6242626;23;20375;-81
2022/10/16 06:29:22;;;;;;;7.63;2.17;;;;;;;;;;6239724;23;20390;-84
2022/10/16 06:31:48;;;;;;;6.43;1.73;;;;;;;;;;6243458;23;20152;-84
2022/10/16 06:34:14;;;;;;;20.83;3.90;;;;;;;;;;6245297;23;20383;-85
2022/10/16 06:36:40;;;;;;;5.90;1.80;;;;;;;;;;6243465;23;20422;-85
2022/10/16 06:39:07;;;;;;;2.03;1.47;;;;;;;;;;6245327;22;20411;-84
2022/10/16 06:41:33;;;;;;;3.80;1.87;;;;;;;;;;6243769;23;20375;-85
2022/10/16 06:43:59;;;;;;;2.57;1.67;;;;;;;;;;6243801;23;20382;-87
2022/10/16 06:46:26;;;;;;;2.93;1.20;;;15.60;99.90;;;;;;6244101;23;20413;-87
2022/10/16 06:48:53;;;;;;;1.83;1.63;;;15.80;99.90;;;;;;6243523;23;20383;-85
2022/10/16 06:51:21;;;;;;;2.30;1.33;;;15.90;99.90;;;;;;6244147;23;20884;-85
2022/10/16 06:53:49;;;;;;;3.13;1.47;;;16.10;99.90;;;;;;6243208;23;20727;-84
2022/10/16 06:56:22;;;;;;;2.33;1.60;;;16.10;99.90;;;;;;6245278;22;20376;-87
2022/10/16 06:58:48;;;;;;;3.73;1.30;;;;;;;;;;6244065;23;20415;-87
2022/10/16 07:01:16;;;;;;;1.53;1.43;;;16.50;99.90;;;;;;6245577;23;20367;-84
2022/10/16 07:03:43;;;;;;;4.70;1.80;;;16.50;99.90;;;;;;6242358;23;20371;-86
2022/10/16 07:06:11;;;;;;;2.00;1.43;;;16.50;99.90;;;;;;6244867;22;20575;-86
2022/10/16 07:08:39;;;;;;;5.73;1.80;;;16.50;99.90;;;;;;6247913;23;20379;-85
2022/10/16 07:11:08;;;;;;;2.20;1.50;;;16.50;99.90;;;;;;6248836;23;20382;-85
2022/10/16 07:13:37;;;;;;;3.43;1.80;;;16.70;99.90;;;;;;6248281;23;20458;-85
2022/10/16 07:16:14;;;;;;;2.40;1.43;;;16.90;99.90;;;;;;6250420;22;20411;-84
2022/10/16 07:18:41;;;;;;;5.60;1.43;;;;;;;;;;6249057;22;20434;-86
2022/10/16 07:21:09;;;;;;;2.27;1.50;;;17.10;99.90;;;;;;6247905;23;20382;-86
2022/10/16 07:23:35;;;;;;;5.10;1.60;;;;;;;;;;6247764;23;20453;-87
2022/10/16 07:26:01;;;;;;;2.00;1.43;;;;;;;;;;6249003;23;20384;-87
2022/10/16 07:28:27;;;;;;;2.83;1.93;;;;;;;;;;6249425;23;20368;-87
2022/10/16 07:30:53;;;;;;;3.70;1.57;;;17.90;99.90;;;;;;6249603;23;20367;-88
2022/10/16 07:33:19;;;;;;;8.80;2.00;;;;;;;;;;6248029;23;20513;-88
2022/10/16 07:35:52;;;;;;;2.60;1.67;;;18.20;99.90;;;;;;6248856;23;20168;-87
2022/10/16 07:38:18;;;;;;;4.17;1.73;;;18.10;99.90;;;;;;6247129;23;20415;-88
2022/10/16 07:40:44;;;;;;;2.50;1.53;;;18.10;99.90;;;;;;6245871;23;20383;-86
2022/10/16 07:43:10;;;;;;;5.87;1.43;;;;;;;;;;6249102;22;20698;-88
2022/10/16 07:45:36;;;;;;;4.20;1.40;;;18.20;99.90;;;;;;6248951;23;20379;-88
2022/10/16 07:48:01;;;;;;;3.03;1.40;;;18.30;99.90;;;;;;6248476;23;20372;-87
2022/10/16 07:50:27;;;;;;;3.20;2.00;;;;;;;;;;6248485;23;20218;-88
2022/10/16 07:52:53;;;;;;;4.27;2.10;;;19.00;99.90;;;;;;6248169;23;20133;-86
2022/10/16 07:55:18;;;;;;;3.07;1.73;;;;;;;;;;6246515;23;20885;-86
2022/10/16 07:57:44;;;;;;;4.10;1.90;;;18.70;99.90;;;;;;6248283;23;20168;-87
2022/10/16 08:00:13;;;;;;;10.60;1.73;;;18.70;99.90;;;;;;6246777;23;20386;-87
2022/10/16 08:02:42;;;;;;;4.10;1.20;;;18.50;99.90;;;;;;6247453;23;20159;-86
2022/10/16 08:05:08;;;;;;;1.70;1.30;;;18.70;99.90;;;;;;6247490;23;20419;-86
2022/10/16 08:07:33;;;;;;;1.47;1.37;;;18.60;99.90;;;;;;6248909;23;20514;-86
2022/10/16 08:10:00;;;;;;;4.47;1.40;;;;;;;;;;6248130;23;20168;-87
2022/10/16 08:12:26;;;;;;;1.40;1.20;;;;;;;;;;6247940;23;20607;-86
2022/10/16 08:14:52;;;;;;;1.73;1.10;;;;;;;;;;6248187;23;20545;-87
2022/10/16 08:17:18;;;;;;;1.60;1.10;;;;;;;;;;6248941;23;20356;-87
2022/10/16 08:19:47;;;;;;;3.60;1.30;;;21.30;99.90;;;;;;6249512;23;20382;-87
2022/10/16 08:22:14;;;;;;;1.80;1.17;;;21.10;99.90;;;;;;6249843;22;20451;-87
2022/10/16 08:24:40;;;;;;;2.47;0.90;;;;;;;;;;6247853;23;20428;-86
2022/10/16 08:27:06;;;;;;;3.10;1.30;;;;;;;;;;6249451;23;20848;-87
2022/10/16 08:29:32;;;;;;;3.90;1.70;;;;;;;;;;6247062;23;20744;-86
2022/10/16 08:31:58;;;;;;;1.20;1.10;;;;;;;;;;6246949;23;20372;-85
2022/10/16 08:34:24;;;;;;;1.30;1.10;;;;;;;;;;6248602;23;20434;-85
2022/10/16 08:36:53;;;;;;;6.10;1.63;;;21.40;99.90;;;;;;6248315;22;20389;-87
2022/10/16 08:39:19;;;;;;;7.93;1.53;;;;;;;;;;6248498;22;20403;-87
2022/10/16 08:42:02;;;;;;;3.83;1.80;;;21.40;99.90;;;;;;6247259;23;20376;-87
2022/10/16 08:44:46;;;;;;;1.83;1.23;;;21.40;99.90;;;;;;6248248;23;20643;-84
2022/10/16 08:47:24;;;;;;;3.33;1.20;;;21.00;99.90;;;;;;6248499;22;20386;-84
2022/10/16 08:50:00;;;;;;;3.20;1.80;;;20.50;99.90;;;;;;6246943;23;20395;-86
2022/10/16 08:52:30;;;;;;;2.07;1.50;;;20.90;99.90;;;;;;6247764;22;20450;-86
2022/10/16 08:54:57;;;;;;;2.53;1.20;;;;;;;;;;6247599;23;20430;-86
2022/10/16 08:57:25;;;;;;;2.43;1.57;;;20.20;99.90;;;;;;6247689;23;20700;-85
2022/10/16 09:00:00;;;;;;;5.07;1.60;;;20.20;99.90;;;;;;6247276;23;20380;-86
2022/10/16 09:02:37;;;;;;;1.87;1.43;;;19.60;99.90;;;;;;6249021;22;20794;-87
2022/10/16 09:05:04;;;;;;;3.30;1.67;;;;;;;;;;6247297;23;20430;-87
2022/10/16 09:07:39;;;;;;;1.83;1.10;;;19.60;99.90;;;;;;6248458;23;20822;-86
2022/10/16 09:10:33;;;;;;;5.20;1.50;;;19.30;99.90;;;;;;6250514;22;20351;-86
2022/10/16 09:13:26;;;;;;;5.10;1.57;;;19.40;99.90;;;;;;6248511;23;20772;-87
2022/10/16 09:15:52;;;;;;;1.33;1.13;;;;;;;;;;6241173;23;20879;-87
2022/10/16 09:18:24;;;;;;;3.90;1.40;;;19.40;99.90;;;;;;6246612;23;20415;-87
2022/10/16 09:21:02;;;;;;;5.17;1.20;;;19.80;99.90;;;;;;6247375;23;20466;-86
2022/10/16 09:23:30;;;;;;;1.20;0.97;;;20.50;99.90;;;;;;6245837;23;20403;-86
2022/10/16 09:25:57;;;;;;;1.60;1.27;;;21.10;99.90;;;;;;6246689;23;20624;-85
2022/10/16 09:28:23;;;;;;;5.03;1.30;;;;;;;;;;6246596;23;20383;-85
2022/10/16 09:30:49;;;;;;;3.00;1.70;;;22.10;99.90;;;;;;6246568;23;20378;-87
2022/10/16 09:33:17;;;;;;;3.10;1.20;;;22.20;99.90;;;;;;6245668;23;20420;-86
2022/10/16 09:35:46;;;;;;;3.13;1.10;;;22.40;99.90;;;;;;6246866;23;20425;-85
2022/10/16 09:38:29;;;;;;;3.13;1.30;;;22.30;99.90;;;;;;6247326;23;20750;-86
2022/10/16 09:41:22;;;;;;;2.70;1.60;;;21.80;99.90;;;;;;6246423;22;20363;-88
2022/10/16 09:44:00;;;;;;;2.07;1.20;;;22.70;99.90;;;;;;6241017;23;20397;-85
2022/10/16 09:46:33;;;;;;;13.23;1.50;;;22.70;99.90;;;;;;6240950;23;20379;-85
2022/10/16 09:49:04;;;;;;;3.90;2.10;;;23.00;99.90;;;;;;6238573;23;20380;-86
2022/10/16 09:51:30;;;;;;;3.80;1.50;;;;;;;;;;6238373;22;20849;-88
2022/10/16 09:54:02;;;;;;;3.97;1.83;;;23.50;99.90;;;;;;6236103;23;20363;-87
2022/10/16 09:56:29;;;;;;;3.73;1.30;;;23.60;99.90;;;;;;6237821;22;20369;-86
2022/10/16 09:59:01;;;;;;;7.20;1.63;;;23.90;99.90;;;;;;6239913;23;20415;-88
2022/10/16 10:01:37;;;;;;;1.90;1.37;;;23.10;99.90;;;;;;6239398;23;20785;-87
2022/10/16 10:04:04;;;;;;;2.63;1.40;;;;;;;;;;6239263;23;20386;-86
2022/10/16 10:06:38;;;;;;;8.00;1.77;;;23.00;99.90;;;;;;6245970;23;20440;-85
2022/10/16 10:09:05;;;;;;;3.07;1.67;;;22.70;99.90;;;;;;6243190;23;20460;-85
2022/10/16 10:11:57;;;;;;;3.33;1.60;;;22.80;99.90;;;;;;6245125;22;20932;-86
2022/10/16 10:14:38;;;;;;;3.50;1.40;;;22.40;99.90;;;;;;6237643;23;20737;-88
2022/10/16 10:17:12;;;;;;;3.10;0.97;;;22.50;99.90;;;;;;6244793;23;20383;-86
2022/10/16 10:19:49;;;;;;;9.47;1.70;;;22.80;99.90;;;;;;6241157;23;20384;-86
2022/10/16 10:22:27;;;;;;;2.20;1.40;;;23.40;99.90;;;;;;6243130;23;20407;-87
2022/10/16 10:25:08;;;;;;;3.10;1.57;;;24.00;99.90;;;;;;6243024;23;20840;-88
2022/10/16 10:28:09;;;;;;;7.80;1.53;;;24.00;99.90;;;;;;6245887;23;20374;-87
2022/10/16 10:30:42;;;;;;;3.73;1.60;;;23.60;99.90;;;;;;6198583;23;20387;-89
2022/10/16 10:33:45;;;;;;;3.37;1.60;;;22.80;99.90;;;;;;6242813;23;20369;-85
2022/10/16 10:36:29;;;;;;;3.27;1.47;;;23.20;99.90;;;;;;6244376;23;20413;-85
2022/10/16 10:39:19;;;;;;;7.63;1.57;;;22.30;99.90;;;;;;6242800;23;20392;-88
2022/10/16 10:42:00;;;;;;;1.60;1.33;;;22.10;99.90;;;;;;6242627;23;20369;-89
2022/10/16 10:44:53;;;;;;;4.60;1.40;;;22.70;99.90;;;;;;6243852;23;20404;-86
2022/10/16 10:47:42;;;;;;;2.10;1.60;;;22.50;99.90;;;;;;6241892;23;20470;-86
2022/10/16 10:50:08;;;;;;;3.17;1.30;;;;;;;;;;6244094;23;20376;-88
2022/10/16 10:52:44;;;;;;;2.50;1.37;;;22.50;99.90;;;;;;6243955;23;20372;-88
2022/10/16 10:55:19;;;;;;;9.37;2.10;;;22.40;99.90;;;;;;6245968;23;20418;-87
2022/10/16 10:57:59;;;;;;;5.10;1.53;;;22.70;99.90;;;;;;6235292;23;20417;-87
2022/10/16 11:00:30;;;;;;;2.63;1.50;;;23.30;99.90;;;;;;6247374;23;20358;-86
2022/10/16 11:03:26;;;;;;;4.43;1.60;;;23.20;99.90;;;;;;6242116;23;20445;-89
2022/10/16 11:06:02;;;;;;;4.10;1.60;;;23.60;99.90;;;;;;6247412;23;20520;-89
2022/10/16 11:08:47;;;;;;;1.73;1.50;;;23.90;99.90;;;;;;6245548;23;20466;-87
2022/10/16 11:11:37;;;;;;;2.07;1.50;;;23.90;99.90;;;;;;6247962;22;20440;-85
2022/10/16 11:14:02;;;;;;;6.90;2.73;;;;;;;;;;6244374;23;20403;-88
2022/10/16 11:16:56;;;;;;;4.70;1.57;;;24.00;99.90;;;;;;6244934;23;20404;-87
2022/10/16 11:19:22;;;;;;;1.93;1.60;;;;;;;;;;6249060;23;20984;-87
2022/10/16 11:22:31;;;;;;;3.93;1.93;;;23.90;99.90;;;;;;6245949;23;20385;-85
2022/10/16 11:25:12;;;;;;;1.93;1.37;;;24.00;99.90;;;;;;6212515;23;20430;-85
2022/10/16 11:27:38;;;;;;;2.23;1.30;;;;;;;;;;6244246;23;20413;-86
2022/10/16 11:30:13;;;;;;;6.63;1.50;;;24.10;99.90;;;;;;6247340;23;20366;-88
2022/10/16 11:33:07;;;;;;;2.00;1.73;;;23.40;99.90;;;;;;6246398;23;20376;-85
2022/10/16 11:35:44;;;;;;;2.07;1.60;;;22.70;99.90;;;;;;6246073;23;20389;-85
2022/10/16 11:38:51;;;;;;;3.67;1.60;;;22.80;99.90;;;;;;6242192;23;20420;-87
2022/10/16 11:41:37;;;;;;;2.17;1.53;;;22.60;99.90;;;;;;6239571;23;20384;-86
2022/10/16 11:44:50;;;;;;;2.73;1.63;;;22.50;99.90;;;;;;6241943;23;20429;-87
2022/10/16 11:47:44;;;;;;;2.20;1.20;;;22.50;99.90;;;;;;6180769;23;20370;-87
2022/10/16 11:50:29;;;;;;;5.13;1.20;;;23.10;99.90;;;;;;6244458;22;20443;-85
2022/10/16 11:53:18;;;;;;;3.10;1.50;;;23.60;99.90;;;;;;6241149;23;20375;-85
2022/10/16 11:55:45;;;;;;;2.20;1.30;;;23.60;99.90;;;;;;6234529;23;20518;-87
2022/10/16 11:58:26;;;;;;;2.07;1.27;;;24.30;99.90;;;;;;6237693;23;20475;-86
2022/10/16 12:01:31;;;;;;;1.70;1.20;;;24.90;99.90;;;;;;6242548;22;20397;-85
2022/10/16 12:04:18;;;;;;;2.13;1.30;;;25.50;99.90;;;;;;6243727;22;20372;-86
2022/10/16 12:06:50;;;;;;;7.50;1.47;;;26.00;99.90;;;;;;6244587;23;20482;-86
2022/10/16 12:09:28;;;;;;;2.60;1.20;;;25.90;99.90;;;;;;6244621;23;20453;-87
2022/10/16 12:11:54;;;;;;;1.90;1.37;;;;;;;;;;6243698;23;20533;-87
2022/10/16 12:14:25;;;;;;;1.67;1.10;;;26.30;99.90;;;;;;6243385;23;20399;-87
2022/10/16 12:16:52;;;;;;;4.90;1.70;;;26.40;99.90;;;;;;6246268;23;20448;-86
2022/10/16 12:19:19;;;;;;;5.93;1.53;;;;;;;;;;6245447;23;20441;-86
2022/10/16 12:21:45;;;;;;;2.40;1.30;;;26.20;99.90;;;;;;6244140;23;20407;-88
2022/10/16 12:24:41;;;;;;;2.30;1.30;;;26.00;99.90;;;;;;6244663;22;20970;-86
2022/10/16 12:27:28;;;;;;;2.87;1.30;;;25.90;99.90;;;;;;6244061;23;20771;-87
2022/10/16 12:30:02;;;;;;;2.20;1.20;;;25.60;99.90;;;;;;6243108;23;20886;-86
2022/10/16 12:32:39;;;;;;;4.10;1.50;;;25.60;99.90;;;;;;6242116;22;20376;-87
2022/10/16 12:35:06;;;;;;;1.77;1.00;;;25.60;99.90;;;;;;6244809;23;20429;-88
2022/10/16 12:37:35;;;;;;;4.00;1.43;;;25.60;99.90;;;;;;6243659;23;20422;-86
2022/10/16 12:40:14;;;;;;;3.30;1.50;;;25.10;99.90;;;;;;6243089;23;20414;-86
2022/10/16 12:42:41;;;;;;;3.67;1.80;;;;;;;;;;6243974;23;20418;-86
2022/10/16 12:45:25;;;;;;;3.23;1.30;;;25.20;99.90;;;;;;6243611;22;20432;-87
2022/10/16 12:47:53;;;;;;;2.07;1.27;;;25.20;99.90;;;;;;6241401;23;20384;-88
2022/10/16 12:50:40;;;;;;;7.03;1.70;;;25.40;99.90;;;;;;6244430;23;20379;-87
2022/10/16 12:53:26;;;;;;;2.30;1.43;;;25.30;99.90;;;;;;6243646;23;20389;-88
2022/10/16 12:56:00;;;;;;;4.67;1.60;;;25.30;99.90;;;;;;6240372;23;20397;-86
2022/10/16 12:58:44;;;;;;;7.73;1.70;;;25.20;99.90;;;;;;6250734;23;20422;-85
2022/10/16 13:01:28;;;;;;;1.80;1.23;;;25.60;99.90;;;;;;6245492;23;20382;-84
2022/10/16 13:04:27;;;;;;;2.47;1.40;;;25.60;99.90;;;;;;6245092;23;20366;-84
2022/10/16 13:07:00;;;;;;;8.03;1.60;;;25.70;99.90;;;;;;6244603;23;20477;-85
2022/10/16 13:09:33;;;;;;;3.37;1.50;;;25.50;99.90;;;;;;6245531;23;20385;-86
2022/10/16 13:11:58;;;;;;;2.40;1.30;;;25.50;99.90;;;;;;6245162;23;20611;-86
2022/10/16 13:14:58;;;;;;;1.73;1.43;;;24.90;99.90;;;;;;6247064;23;20444;-85
2022/10/16 13:18:01;;;;;;;2.90;1.60;;;25.10;99.90;;;;;;6243257;23;20152;-85
2022/10/16 13:20:53;;;;;;;2.73;1.70;;;24.80;99.90;;;;;;6247682;23;20373;-85
2022/10/16 13:23:35;;;;;;;18.03;2.60;;;24.90;99.90;;;;;;6246599;23;20417;-85
2022/10/16 13:26:22;;;;;;;1.80;1.70;;;25.00;99.90;;;;;;6244401;22;20822;-85
2022/10/16 13:28:47;;;;;;;7.97;1.90;;;;;;;;;;6244552;22;20400;-84
2022/10/16 13:31:24;;;;;;;4.03;2.20;;;24.40;99.90;;;;;;6242649;23;20381;-85
2022/10/16 13:33:56;;;;;;;3.10;1.50;;;24.20;99.90;;;;;;6243184;22;20408;-85
2022/10/16 13:36:26;;;;;;;5.63;1.90;;;24.00;99.90;;;;;;6244678;22;20402;-85
2022/10/16 13:39:20;;;;;;;6.00;1.90;;;24.10;99.90;;;;;;6247661;22;20404;-84
2022/10/16 13:41:58;;;;;;;2.40;1.63;;;24.00;99.90;;;;;;6245787;23;20385;-85
2022/10/16 13:44:24;;;;;;;3.43;1.90;;;;;;;;;;6245876;22;21095;-85
2022/10/16 13:47:02;;;;;;;8.30;1.73;;;23.50;99.90;;;;;;6246376;23;20396;-85
2022/10/16 13:49:28;;;;;;;3.87;1.73;;;;;;;;;;6242670;22;20365;-85